sensor_id;sensor_type;location;lat;lon;timestamp;P1;durP1;ratioP1;P2;durP2;ratioP2
26102;SDS011;32703;49.182;9.042;2022-09-03T00:00:27;1.17;;;0.82;;
26102;SDS011;32703;49.182;9.042;2022-09-03T00:05:50;0.80;;;0.60;;
26102;SDS011;32703;49.182;9.042;2022-09-03T00:09:13;2.40;;;0.80;;
26102;SDS011;32703;49.182;9.042;2022-09-03T00:11:28;1.10;;;0.90;;
26102;SDS011;32703;49.182;9.042;2022-09-03T00:15:01;0.75;;;0.75;;
26102;SDS011;32703;49.182;9.042;2022-09-03T00:17:01;0.80;;;0.70;;
26102;SDS011;32703;49.182;9.042;2022-09-03T00:19:36;1.17;;;0.70;;
26102;SDS011;32703;49.182;9.042;2022-09-03T00:22:09;0.70;;;0.70;;
26102;SDS011;32703;49.182;9.042;2022-09-03T00:24:43;0.75;;;0.65;;
26102;SDS011;32703;49.182;9.042;2022-09-03T00:27:14;1.33;;;0.80;;
26102;SDS011;32703;49.182;9.042;2022-09-03T00:29:48;1.38;;;0.73;;
26102;SDS011;32703;49.182;9.042;2022-09-03T00:32:23;1.38;;;0.60;;
26102;SDS011;32703;49.182;9.042;2022-09-03T00:34:55;1.67;;;0.80;;
26102;SDS011;32703;49.182;9.042;2022-09-03T00:37:27;2.85;;;1.00;;
26102;SDS011;32703;49.182;9.042;2022-09-03T00:39:54;0.52;;;0.52;;
26102;SDS011;32703;49.182;9.042;2022-09-03T00:42:23;0.80;;;0.60;;
26102;SDS011;32703;49.182;9.042;2022-09-03T00:45:02;2.13;;;0.90;;
26102;SDS011;32703;49.182;9.042;2022-09-03T00:58:41;1.17;;;0.80;;
26102;SDS011;32703;49.182;9.042;2022-09-03T01:01:23;1.08;;;0.70;;
26102;SDS011;32703;49.182;9.042;2022-09-03T01:04:00;2.10;;;0.63;;
26102;SDS011;32703;49.182;9.042;2022-09-03T01:06:52;1.50;;;0.77;;
26102;SDS011;32703;49.182;9.042;2022-09-03T01:14:24;1.77;;;0.80;;
26102;SDS011;32703;49.182;9.042;2022-09-03T01:16:55;1.20;;;0.63;;
26102;SDS011;32703;49.182;9.042;2022-09-03T01:30:26;1.92;;;0.68;;
26102;SDS011;32703;49.182;9.042;2022-09-03T01:35:47;0.57;;;0.50;;
26102;SDS011;32703;49.182;9.042;2022-09-03T01:41:17;1.50;;;0.95;;
26102;SDS011;32703;49.182;9.042;2022-09-03T01:50:16;1.02;;;0.90;;
26102;SDS011;32703;49.182;9.042;2022-09-03T01:56:01;1.23;;;0.68;;
26102;SDS011;32703;49.182;9.042;2022-09-03T01:58:41;0.82;;;0.70;;
26102;SDS011;32703;49.182;9.042;2022-09-03T02:01:16;0.98;;;0.75;;
26102;SDS011;32703;49.182;9.042;2022-09-03T02:03:48;0.60;;;0.60;;
26102;SDS011;32703;49.182;9.042;2022-09-03T02:06:15;2.67;;;1.13;;
26102;SDS011;32703;49.182;9.042;2022-09-03T02:08:44;1.10;;;0.70;;
26102;SDS011;32703;49.182;9.042;2022-09-03T02:11:10;0.98;;;0.60;;
26102;SDS011;32703;49.182;9.042;2022-09-03T02:13:43;0.60;;;0.60;;
26102;SDS011;32703;49.182;9.042;2022-09-03T02:16:17;0.60;;;0.60;;
26102;SDS011;32703;49.182;9.042;2022-09-03T02:18:47;1.13;;;0.55;;
26102;SDS011;32703;49.182;9.042;2022-09-03T02:21:16;0.60;;;0.60;;
26102;SDS011;32703;49.182;9.042;2022-09-03T02:23:44;0.55;;;0.55;;
26102;SDS011;32703;49.182;9.042;2022-09-03T02:26:11;3.17;;;0.70;;
26102;SDS011;32703;49.182;9.042;2022-09-03T02:28:39;0.55;;;0.50;;
26102;SDS011;32703;49.182;9.042;2022-09-03T02:31:05;1.52;;;0.75;;
26102;SDS011;32703;49.182;9.042;2022-09-03T02:33:33;0.70;;;0.70;;
26102;SDS011;32703;49.182;9.042;2022-09-03T02:36:05;1.42;;;0.80;;
26102;SDS011;32703;49.182;9.042;2022-09-03T02:38:32;1.00;;;0.88;;
26102;SDS011;32703;49.182;9.042;2022-09-03T02:40:58;1.10;;;0.77;;
26102;SDS011;32703;49.182;9.042;2022-09-03T02:46:37;0.50;;;0.50;;
26102;SDS011;32703;49.182;9.042;2022-09-03T02:49:04;0.55;;;0.50;;
26102;SDS011;32703;49.182;9.042;2022-09-03T02:51:34;1.25;;;0.80;;
26102;SDS011;32703;49.182;9.042;2022-09-03T02:54:05;1.17;;;0.80;;
26102;SDS011;32703;49.182;9.042;2022-09-03T02:56:31;1.75;;;0.43;;
26102;SDS011;32703;49.182;9.042;2022-09-03T02:58:57;1.13;;;0.68;;
26102;SDS011;32703;49.182;9.042;2022-09-03T03:01:24;1.15;;;0.80;;
26102;SDS011;32703;49.182;9.042;2022-09-03T03:03:50;0.77;;;0.68;;
26102;SDS011;32703;49.182;9.042;2022-09-03T03:06:16;1.42;;;0.70;;
26102;SDS011;32703;49.182;9.042;2022-09-03T03:08:44;1.95;;;0.95;;
26102;SDS011;32703;49.182;9.042;2022-09-03T03:11:11;2.45;;;0.60;;
26102;SDS011;32703;49.182;9.042;2022-09-03T03:13:39;0.68;;;0.68;;
26102;SDS011;32703;49.182;9.042;2022-09-03T03:16:04;0.60;;;0.60;;
26102;SDS011;32703;49.182;9.042;2022-09-03T03:18:30;0.98;;;0.70;;
26102;SDS011;32703;49.182;9.042;2022-09-03T03:20:56;1.27;;;0.88;;
26102;SDS011;32703;49.182;9.042;2022-09-03T03:23:21;3.95;;;0.88;;
26102;SDS011;32703;49.182;9.042;2022-09-03T03:25:47;0.60;;;0.60;;
26102;SDS011;32703;49.182;9.042;2022-09-03T03:28:13;2.42;;;0.70;;
26102;SDS011;32703;49.182;9.042;2022-09-03T03:30:39;0.80;;;0.80;;
26102;SDS011;32703;49.182;9.042;2022-09-03T03:33:06;0.52;;;0.52;;
26102;SDS011;32703;49.182;9.042;2022-09-03T03:35:35;0.55;;;0.55;;
26102;SDS011;32703;49.182;9.042;2022-09-03T03:38:01;2.40;;;0.70;;
26102;SDS011;32703;49.182;9.042;2022-09-03T03:40:27;1.40;;;0.85;;
26102;SDS011;32703;49.182;9.042;2022-09-03T03:42:52;0.75;;;0.63;;
26102;SDS011;32703;49.182;9.042;2022-09-03T03:45:19;0.70;;;0.70;;
26102;SDS011;32703;49.182;9.042;2022-09-03T03:47:44;0.70;;;0.65;;
26102;SDS011;32703;49.182;9.042;2022-09-03T03:50:10;0.82;;;0.52;;
26102;SDS011;32703;49.182;9.042;2022-09-03T03:52:35;0.75;;;0.60;;
26102;SDS011;32703;49.182;9.042;2022-09-03T03:55:01;0.75;;;0.60;;
26102;SDS011;32703;49.182;9.042;2022-09-03T03:57:28;2.15;;;0.88;;
26102;SDS011;32703;49.182;9.042;2022-09-03T03:59:55;1.55;;;0.60;;
26102;SDS011;32703;49.182;9.042;2022-09-03T04:02:20;0.70;;;0.70;;
26102;SDS011;32703;49.182;9.042;2022-09-03T04:04:46;0.73;;;0.65;;
26102;SDS011;32703;49.182;9.042;2022-09-03T04:07:11;0.60;;;0.60;;
26102;SDS011;32703;49.182;9.042;2022-09-03T04:09:37;1.05;;;0.65;;
26102;SDS011;32703;49.182;9.042;2022-09-03T04:12:03;1.13;;;0.80;;
26102;SDS011;32703;49.182;9.042;2022-09-03T04:14:32;0.77;;;0.68;;
26102;SDS011;32703;49.182;9.042;2022-09-03T04:16:59;0.90;;;0.90;;
26102;SDS011;32703;49.182;9.042;2022-09-03T04:19:25;0.68;;;0.68;;
26102;SDS011;32703;49.182;9.042;2022-09-03T04:21:53;0.98;;;0.68;;
26102;SDS011;32703;49.182;9.042;2022-09-03T04:24:19;0.60;;;0.60;;
26102;SDS011;32703;49.182;9.042;2022-09-03T04:26:44;0.70;;;0.70;;
26102;SDS011;32703;49.182;9.042;2022-09-03T04:29:11;0.57;;;0.57;;
26102;SDS011;32703;49.182;9.042;2022-09-03T04:31:37;0.70;;;0.70;;
26102;SDS011;32703;49.182;9.042;2022-09-03T04:34:03;1.40;;;0.60;;
26102;SDS011;32703;49.182;9.042;2022-09-03T04:36:33;0.80;;;0.70;;
26102;SDS011;32703;49.182;9.042;2022-09-03T04:38:59;0.57;;;0.50;;
26102;SDS011;32703;49.182;9.042;2022-09-03T04:41:26;0.80;;;0.70;;
26102;SDS011;32703;49.182;9.042;2022-09-03T04:43:54;1.40;;;0.70;;
26102;SDS011;32703;49.182;9.042;2022-09-03T04:46:22;1.55;;;0.70;;
26102;SDS011;32703;49.182;9.042;2022-09-03T04:48:50;0.70;;;0.70;;
26102;SDS011;32703;49.182;9.042;2022-09-03T04:51:21;0.68;;;0.60;;
26102;SDS011;32703;49.182;9.042;2022-09-03T04:53:52;0.98;;;0.70;;
26102;SDS011;32703;49.182;9.042;2022-09-03T04:56:23;1.02;;;0.80;;
26102;SDS011;32703;49.182;9.042;2022-09-03T04:58:53;0.63;;;0.63;;
26102;SDS011;32703;49.182;9.042;2022-09-03T05:01:21;0.65;;;0.65;;
26102;SDS011;32703;49.182;9.042;2022-09-03T05:03:48;0.98;;;0.70;;
26102;SDS011;32703;49.182;9.042;2022-09-03T05:06:18;0.60;;;0.60;;
26102;SDS011;32703;49.182;9.042;2022-09-03T05:08:47;0.70;;;0.70;;
26102;SDS011;32703;49.182;9.042;2022-09-03T05:11:14;0.90;;;0.90;;
26102;SDS011;32703;49.182;9.042;2022-09-03T05:13:40;1.20;;;0.95;;
26102;SDS011;32703;49.182;9.042;2022-09-03T05:16:09;2.80;;;1.50;;
26102;SDS011;32703;49.182;9.042;2022-09-03T05:18:37;0.70;;;0.70;;
26102;SDS011;32703;49.182;9.042;2022-09-03T05:21:04;2.42;;;0.90;;
26102;SDS011;32703;49.182;9.042;2022-09-03T05:23:34;1.00;;;0.80;;
26102;SDS011;32703;49.182;9.042;2022-09-03T05:26:01;0.80;;;0.80;;
26102;SDS011;32703;49.182;9.042;2022-09-03T05:28:29;1.25;;;0.80;;
26102;SDS011;32703;49.182;9.042;2022-09-03T05:31:01;1.10;;;0.90;;
26102;SDS011;32703;49.182;9.042;2022-09-03T05:33:42;0.77;;;0.60;;
26102;SDS011;32703;49.182;9.042;2022-09-03T05:36:11;1.02;;;0.93;;
26102;SDS011;32703;49.182;9.042;2022-09-03T05:38:41;2.22;;;0.60;;
26102;SDS011;32703;49.182;9.042;2022-09-03T05:41:07;4.15;;;0.90;;
26102;SDS011;32703;49.182;9.042;2022-09-03T05:43:34;0.60;;;0.60;;
26102;SDS011;32703;49.182;9.042;2022-09-03T05:46:01;2.25;;;1.10;;
26102;SDS011;32703;49.182;9.042;2022-09-03T05:48:33;1.65;;;0.90;;
26102;SDS011;32703;49.182;9.042;2022-09-03T05:51:01;0.80;;;0.80;;
26102;SDS011;32703;49.182;9.042;2022-09-03T05:53:32;1.25;;;0.95;;
26102;SDS011;32703;49.182;9.042;2022-09-03T05:56:00;0.88;;;0.70;;
26102;SDS011;32703;49.182;9.042;2022-09-03T05:58:31;0.70;;;0.70;;
26102;SDS011;32703;49.182;9.042;2022-09-03T06:00:58;2.90;;;0.85;;
26102;SDS011;32703;49.182;9.042;2022-09-03T06:03:24;1.10;;;0.88;;
26102;SDS011;32703;49.182;9.042;2022-09-03T06:05:50;1.10;;;0.90;;
26102;SDS011;32703;49.182;9.042;2022-09-03T06:08:18;1.42;;;1.00;;
26102;SDS011;32703;49.182;9.042;2022-09-03T06:10:44;0.70;;;0.70;;
26102;SDS011;32703;49.182;9.042;2022-09-03T06:13:10;0.95;;;0.88;;
26102;SDS011;32703;49.182;9.042;2022-09-03T06:15:35;1.08;;;0.95;;
26102;SDS011;32703;49.182;9.042;2022-09-03T06:18:01;1.30;;;0.90;;
26102;SDS011;32703;49.182;9.042;2022-09-03T06:20:26;0.70;;;0.70;;
26102;SDS011;32703;49.182;9.042;2022-09-03T06:22:53;0.80;;;0.70;;
26102;SDS011;32703;49.182;9.042;2022-09-03T06:25:21;1.10;;;0.90;;
26102;SDS011;32703;49.182;9.042;2022-09-03T06:27:47;1.40;;;0.88;;
26102;SDS011;32703;49.182;9.042;2022-09-03T06:30:13;1.30;;;0.90;;
26102;SDS011;32703;49.182;9.042;2022-09-03T06:32:44;0.98;;;0.80;;
26102;SDS011;32703;49.182;9.042;2022-09-03T06:35:10;0.80;;;0.70;;
26102;SDS011;32703;49.182;9.042;2022-09-03T06:37:39;1.33;;;0.70;;
26102;SDS011;32703;49.182;9.042;2022-09-03T06:40:05;1.10;;;0.90;;
26102;SDS011;32703;49.182;9.042;2022-09-03T06:42:40;0.95;;;0.88;;
26102;SDS011;32703;49.182;9.042;2022-09-03T06:45:06;1.02;;;0.90;;
26102;SDS011;32703;49.182;9.042;2022-09-03T06:47:33;0.75;;;0.55;;
26102;SDS011;32703;49.182;9.042;2022-09-03T06:49:59;1.40;;;0.90;;
26102;SDS011;32703;49.182;9.042;2022-09-03T06:52:26;0.73;;;0.73;;
26102;SDS011;32703;49.182;9.042;2022-09-03T06:54:52;1.35;;;0.80;;
26102;SDS011;32703;49.182;9.042;2022-09-03T06:57:17;1.13;;;0.88;;
26102;SDS011;32703;49.182;9.042;2022-09-03T06:59:44;1.05;;;0.85;;
26102;SDS011;32703;49.182;9.042;2022-09-03T07:02:09;1.15;;;0.73;;
26102;SDS011;32703;49.182;9.042;2022-09-03T07:04:35;1.38;;;0.90;;
26102;SDS011;32703;49.182;9.042;2022-09-03T07:07:00;1.00;;;0.65;;
26102;SDS011;32703;49.182;9.042;2022-09-03T07:09:26;1.10;;;0.90;;
26102;SDS011;32703;49.182;9.042;2022-09-03T07:11:52;0.80;;;0.80;;
26102;SDS011;32703;49.182;9.042;2022-09-03T07:14:18;0.90;;;0.80;;
26102;SDS011;32703;49.182;9.042;2022-09-03T07:16:45;1.10;;;0.70;;
26102;SDS011;32703;49.182;9.042;2022-09-03T07:19:12;1.05;;;0.80;;
26102;SDS011;32703;49.182;9.042;2022-09-03T07:21:38;1.20;;;0.80;;
26102;SDS011;32703;49.182;9.042;2022-09-03T07:24:08;1.30;;;0.90;;
26102;SDS011;32703;49.182;9.042;2022-09-03T07:26:35;1.63;;;0.80;;
26102;SDS011;32703;49.182;9.042;2022-09-03T07:29:02;1.38;;;0.80;;
26102;SDS011;32703;49.182;9.042;2022-09-03T07:31:32;1.60;;;0.88;;
26102;SDS011;32703;49.182;9.042;2022-09-03T07:34:00;0.98;;;0.88;;
26102;SDS011;32703;49.182;9.042;2022-09-03T07:36:33;0.80;;;0.80;;
26102;SDS011;32703;49.182;9.042;2022-09-03T07:39:08;1.10;;;0.80;;
26102;SDS011;32703;49.182;9.042;2022-09-03T07:41:35;1.50;;;0.90;;
26102;SDS011;32703;49.182;9.042;2022-09-03T07:44:01;1.13;;;0.93;;
26102;SDS011;32703;49.182;9.042;2022-09-03T07:46:29;2.08;;;0.93;;
26102;SDS011;32703;49.182;9.042;2022-09-03T07:48:57;0.98;;;0.77;;
26102;SDS011;32703;49.182;9.042;2022-09-03T07:51:26;1.10;;;1.00;;
26102;SDS011;32703;49.182;9.042;2022-09-03T07:53:54;1.40;;;0.90;;
26102;SDS011;32703;49.182;9.042;2022-09-03T07:56:25;1.00;;;0.80;;
26102;SDS011;32703;49.182;9.042;2022-09-03T07:58:52;1.98;;;0.90;;
26102;SDS011;32703;49.182;9.042;2022-09-03T08:01:21;1.58;;;1.00;;
26102;SDS011;32703;49.182;9.042;2022-09-03T08:03:49;1.63;;;0.90;;
26102;SDS011;32703;49.182;9.042;2022-09-03T08:06:17;1.20;;;1.10;;
26102;SDS011;32703;49.182;9.042;2022-09-03T08:08:44;2.10;;;0.90;;
26102;SDS011;32703;49.182;9.042;2022-09-03T08:11:11;1.23;;;1.13;;
26102;SDS011;32703;49.182;9.042;2022-09-03T08:13:44;1.20;;;1.10;;
26102;SDS011;32703;49.182;9.042;2022-09-03T08:16:13;1.58;;;1.10;;
26102;SDS011;32703;49.182;9.042;2022-09-03T08:18:40;1.20;;;1.10;;
26102;SDS011;32703;49.182;9.042;2022-09-03T08:21:07;4.82;;;1.20;;
26102;SDS011;32703;49.182;9.042;2022-09-03T08:23:37;1.48;;;1.25;;
26102;SDS011;32703;49.182;9.042;2022-09-03T08:26:04;1.48;;;1.10;;
26102;SDS011;32703;49.182;9.042;2022-09-03T08:28:31;1.65;;;1.20;;
26102;SDS011;32703;49.182;9.042;2022-09-03T08:30:58;6.75;;;1.13;;
26102;SDS011;32703;49.182;9.042;2022-09-03T08:33:45;1.13;;;1.00;;
26102;SDS011;32703;49.182;9.042;2022-09-03T08:36:17;1.40;;;1.10;;
26102;SDS011;32703;49.182;9.042;2022-09-03T08:38:44;1.20;;;0.90;;
26102;SDS011;32703;49.182;9.042;2022-09-03T08:41:14;1.65;;;1.20;;
26102;SDS011;32703;49.182;9.042;2022-09-03T08:52:19;1.10;;;1.00;;
26102;SDS011;32703;49.182;9.042;2022-09-03T08:54:45;1.40;;;0.90;;
26102;SDS011;32703;49.182;9.042;2022-09-03T08:57:13;1.55;;;0.90;;
26102;SDS011;32703;49.182;9.042;2022-09-03T08:59:40;1.13;;;0.88;;
26102;SDS011;32703;49.182;9.042;2022-09-03T09:02:25;1.10;;;1.00;;
26102;SDS011;32703;49.182;9.042;2022-09-03T09:05:16;1.05;;;0.95;;
26102;SDS011;32703;49.182;9.042;2022-09-03T09:07:52;1.55;;;1.00;;
26102;SDS011;32703;49.182;9.042;2022-09-03T09:10:56;3.08;;;1.13;;
26102;SDS011;32703;49.182;9.042;2022-09-03T09:13:40;1.40;;;1.15;;
26102;SDS011;32703;49.182;9.042;2022-09-03T09:16:21;1.63;;;1.25;;
26102;SDS011;32703;49.182;9.042;2022-09-03T09:19:12;1.42;;;0.90;;
26102;SDS011;32703;49.182;9.042;2022-09-03T09:22:01;1.27;;;1.17;;
26102;SDS011;32703;49.182;9.042;2022-09-03T09:24:36;1.73;;;1.20;;
26102;SDS011;32703;49.182;9.042;2022-09-03T09:27:07;1.73;;;1.10;;
26102;SDS011;32703;49.182;9.042;2022-09-03T09:29:36;1.33;;;1.20;;
26102;SDS011;32703;49.182;9.042;2022-09-03T09:32:03;2.75;;;1.40;;
26102;SDS011;32703;49.182;9.042;2022-09-03T09:34:34;2.00;;;0.95;;
26102;SDS011;32703;49.182;9.042;2022-09-03T09:37:03;1.10;;;1.00;;
26102;SDS011;32703;49.182;9.042;2022-09-03T09:39:32;1.30;;;1.08;;
26102;SDS011;32703;49.182;9.042;2022-09-03T09:42:03;1.45;;;0.90;;
26102;SDS011;32703;49.182;9.042;2022-09-03T09:44:38;1.73;;;1.13;;
26102;SDS011;32703;49.182;9.042;2022-09-03T09:49:56;1.42;;;1.00;;
26102;SDS011;32703;49.182;9.042;2022-09-03T09:52:26;3.35;;;1.30;;
26102;SDS011;32703;49.182;9.042;2022-09-03T09:55:04;4.38;;;1.30;;
26102;SDS011;32703;49.182;9.042;2022-09-03T09:57:33;7.00;;;1.30;;
26102;SDS011;32703;49.182;9.042;2022-09-03T10:00:05;1.45;;;1.10;;
26102;SDS011;32703;49.182;9.042;2022-09-03T10:02:35;1.60;;;1.15;;
26102;SDS011;32703;49.182;9.042;2022-09-03T10:05:17;2.35;;;1.30;;
26102;SDS011;32703;49.182;9.042;2022-09-03T10:07:54;1.95;;;1.38;;
26102;SDS011;32703;49.182;9.042;2022-09-03T10:10:20;1.23;;;1.10;;
26102;SDS011;32703;49.182;9.042;2022-09-03T10:18:23;2.00;;;1.17;;
26102;SDS011;32703;49.182;9.042;2022-09-03T10:21:15;3.75;;;1.20;;
26102;SDS011;32703;49.182;9.042;2022-09-03T10:26:54;4.97;;;1.60;;
26102;SDS011;32703;49.182;9.042;2022-09-03T10:29:22;1.42;;;1.13;;
26102;SDS011;32703;49.182;9.042;2022-09-03T10:31:58;1.88;;;1.10;;
26102;SDS011;32703;49.182;9.042;2022-09-03T10:34:57;1.63;;;1.02;;
26102;SDS011;32703;49.182;9.042;2022-09-03T10:45:56;1.20;;;1.10;;
26102;SDS011;32703;49.182;9.042;2022-09-03T10:51:20;1.85;;;1.30;;
26102;SDS011;32703;49.182;9.042;2022-09-03T11:00:00;2.78;;;1.17;;
26102;SDS011;32703;49.182;9.042;2022-09-03T11:07:35;1.30;;;1.15;;
26102;SDS011;32703;49.182;9.042;2022-09-03T11:15:55;1.20;;;1.00;;
26102;SDS011;32703;49.182;9.042;2022-09-03T11:18:32;1.58;;;0.95;;
26102;SDS011;32703;49.182;9.042;2022-09-03T11:21:07;1.45;;;1.27;;
26102;SDS011;32703;49.182;9.042;2022-09-03T11:23:39;1.52;;;1.20;;
26102;SDS011;32703;49.182;9.042;2022-09-03T11:26:07;1.52;;;1.20;;
26102;SDS011;32703;49.182;9.042;2022-09-03T11:34:45;1.45;;;1.00;;
26102;SDS011;32703;49.182;9.042;2022-09-03T11:37:25;0.90;;;0.82;;
26102;SDS011;32703;49.182;9.042;2022-09-03T11:39:53;1.15;;;0.93;;
26102;SDS011;32703;49.182;9.042;2022-09-03T11:42:34;2.13;;;1.05;;
26102;SDS011;32703;49.182;9.042;2022-09-03T11:45:12;1.38;;;1.17;;
26102;SDS011;32703;49.182;9.042;2022-09-03T11:47:58;1.48;;;0.98;;
26102;SDS011;32703;49.182;9.042;2022-09-03T11:50:27;1.63;;;1.20;;
26102;SDS011;32703;49.182;9.042;2022-09-03T11:53:06;1.77;;;1.33;;
26102;SDS011;32703;49.182;9.042;2022-09-03T11:56:35;4.00;;;1.70;;
26102;SDS011;32703;49.182;9.042;2022-09-03T11:58:31;2.33;;;1.40;;
26102;SDS011;32703;49.182;9.042;2022-09-03T12:01:11;4.22;;;1.38;;
26102;SDS011;32703;49.182;9.042;2022-09-03T12:06:23;2.05;;;1.73;;
26102;SDS011;32703;49.182;9.042;2022-09-03T12:22:14;2.45;;;1.60;;
26102;SDS011;32703;49.182;9.042;2022-09-03T12:24:41;2.63;;;1.58;;
26102;SDS011;32703;49.182;9.042;2022-09-03T12:27:14;2.13;;;1.35;;
26102;SDS011;32703;49.182;9.042;2022-09-03T12:29:55;2.70;;;1.83;;
26102;SDS011;32703;49.182;9.042;2022-09-03T12:32:29;1.52;;;1.42;;
26102;SDS011;32703;49.182;9.042;2022-09-03T12:35:12;1.75;;;1.42;;
26102;SDS011;32703;49.182;9.042;2022-09-03T12:37:45;1.83;;;1.45;;
26102;SDS011;32703;49.182;9.042;2022-09-03T12:49:56;1.90;;;1.65;;
26102;SDS011;32703;49.182;9.042;2022-09-03T12:52:33;2.22;;;1.50;;
26102;SDS011;32703;49.182;9.042;2022-09-03T12:57:33;2.03;;;1.73;;
26102;SDS011;32703;49.182;9.042;2022-09-03T13:00:23;3.00;;;1.77;;
26102;SDS011;32703;49.182;9.042;2022-09-03T13:02:50;1.77;;;1.60;;
26102;SDS011;32703;49.182;9.042;2022-09-03T13:05:19;2.50;;;1.50;;
26102;SDS011;32703;49.182;9.042;2022-09-03T13:07:51;2.22;;;1.73;;
26102;SDS011;32703;49.182;9.042;2022-09-03T13:10:27;2.90;;;1.02;;
26102;SDS011;32703;49.182;9.042;2022-09-03T13:13:02;1.48;;;1.27;;
26102;SDS011;32703;49.182;9.042;2022-09-03T13:18:48;1.88;;;1.30;;
26102;SDS011;32703;49.182;9.042;2022-09-03T13:27:50;5.95;;;1.40;;
26102;SDS011;32703;49.182;9.042;2022-09-03T13:30:33;2.78;;;1.33;;
26102;SDS011;32703;49.182;9.042;2022-09-03T13:36:21;8.88;;;1.38;;
26102;SDS011;32703;49.182;9.042;2022-09-03T13:39:01;1.67;;;1.40;;
26102;SDS011;32703;49.182;9.042;2022-09-03T13:41:36;2.00;;;1.40;;
26102;SDS011;32703;49.182;9.042;2022-09-03T13:44:10;1.95;;;1.20;;
26102;SDS011;32703;49.182;9.042;2022-09-03T13:49:27;1.30;;;1.20;;
26102;SDS011;32703;49.182;9.042;2022-09-03T13:52:26;2.63;;;1.50;;
26102;SDS011;32703;49.182;9.042;2022-09-03T13:55:01;5.70;;;3.72;;
26102;SDS011;32703;49.182;9.042;2022-09-03T13:57:53;4.18;;;2.90;;
26102;SDS011;32703;49.182;9.042;2022-09-03T14:00:22;2.60;;;1.83;;
26102;SDS011;32703;49.182;9.042;2022-09-03T14:03:06;2.63;;;1.55;;
26102;SDS011;32703;49.182;9.042;2022-09-03T14:08:16;1.65;;;1.25;;
26102;SDS011;32703;49.182;9.042;2022-09-03T14:13:29;2.17;;;1.50;;
26102;SDS011;32703;49.182;9.042;2022-09-03T14:36:49;2.13;;;1.67;;
26102;SDS011;32703;49.182;9.042;2022-09-03T14:39:30;2.45;;;1.52;;
26102;SDS011;32703;49.182;9.042;2022-09-03T14:47:46;4.55;;;2.22;;
26102;SDS011;32703;49.182;9.042;2022-09-03T14:50:36;4.60;;;1.90;;
26102;SDS011;32703;49.182;9.042;2022-09-03T14:53:41;2.47;;;1.90;;
26102;SDS011;32703;49.182;9.042;2022-09-03T14:56:23;3.72;;;2.35;;
26102;SDS011;32703;49.182;9.042;2022-09-03T15:02:06;8.00;;;2.25;;
26102;SDS011;32703;49.182;9.042;2022-09-03T15:10:23;3.78;;;2.17;;
26102;SDS011;32703;49.182;9.042;2022-09-03T15:18:25;4.18;;;2.30;;
26102;SDS011;32703;49.182;9.042;2022-09-03T15:29:16;2.80;;;1.70;;
26102;SDS011;32703;49.182;9.042;2022-09-03T15:31:57;1.77;;;1.48;;
26102;SDS011;32703;49.182;9.042;2022-09-03T15:34:33;1.90;;;1.48;;
26102;SDS011;32703;49.182;9.042;2022-09-03T15:37:18;1.85;;;1.20;;
26102;SDS011;32703;49.182;9.042;2022-09-03T15:39:56;1.85;;;1.23;;
26102;SDS011;32703;49.182;9.042;2022-09-03T15:42:26;1.73;;;1.02;;
26102;SDS011;32703;49.182;9.042;2022-09-03T15:44:55;1.42;;;1.20;;
26102;SDS011;32703;49.182;9.042;2022-09-03T15:47:40;1.95;;;1.42;;
26102;SDS011;32703;49.182;9.042;2022-09-03T15:50:14;2.05;;;1.27;;
26102;SDS011;32703;49.182;9.042;2022-09-03T15:55:34;2.28;;;1.52;;
26102;SDS011;32703;49.182;9.042;2022-09-03T16:01:00;2.17;;;1.27;;
26102;SDS011;32703;49.182;9.042;2022-09-03T16:03:38;1.75;;;0.98;;
26102;SDS011;32703;49.182;9.042;2022-09-03T16:09:21;3.13;;;1.65;;
26102;SDS011;32703;49.182;9.042;2022-09-03T16:11:52;3.33;;;1.38;;
26102;SDS011;32703;49.182;9.042;2022-09-03T16:14:28;1.77;;;1.30;;
26102;SDS011;32703;49.182;9.042;2022-09-03T16:19:34;1.42;;;1.10;;
26102;SDS011;32703;49.182;9.042;2022-09-03T16:24:53;1.20;;;1.10;;
26102;SDS011;32703;49.182;9.042;2022-09-03T16:27:23;1.60;;;1.20;;
26102;SDS011;32703;49.182;9.042;2022-09-03T16:30:00;1.90;;;1.38;;
26102;SDS011;32703;49.182;9.042;2022-09-03T16:44:02;7.35;;;3.67;;
26102;SDS011;32703;49.182;9.042;2022-09-03T16:52:53;5.43;;;3.30;;
26102;SDS011;32703;49.182;9.042;2022-09-03T16:55:25;5.60;;;2.67;;
26102;SDS011;32703;49.182;9.042;2022-09-03T16:58:16;7.63;;;3.33;;
26102;SDS011;32703;49.182;9.042;2022-09-03T17:03:44;4.88;;;2.65;;
26102;SDS011;32703;49.182;9.042;2022-09-03T17:08:48;4.10;;;2.10;;
26102;SDS011;32703;49.182;9.042;2022-09-03T17:14:21;4.07;;;1.65;;
26102;SDS011;32703;49.182;9.042;2022-09-03T17:17:08;3.15;;;1.85;;
26102;SDS011;32703;49.182;9.042;2022-09-03T17:22:48;2.05;;;1.40;;
26102;SDS011;32703;49.182;9.042;2022-09-03T17:25:40;1.58;;;1.25;;
26102;SDS011;32703;49.182;9.042;2022-09-03T17:31:12;1.55;;;1.20;;
26102;SDS011;32703;49.182;9.042;2022-09-03T17:33:54;2.33;;;1.40;;
26102;SDS011;32703;49.182;9.042;2022-09-03T17:36:30;2.47;;;1.35;;
26102;SDS011;32703;49.182;9.042;2022-09-03T17:39:24;2.45;;;1.40;;
26102;SDS011;32703;49.182;9.042;2022-09-03T17:42:27;2.53;;;1.33;;
26102;SDS011;32703;49.182;9.042;2022-09-03T18:01:27;2.17;;;1.50;;
26102;SDS011;32703;49.182;9.042;2022-09-03T18:04:14;2.42;;;1.63;;
26102;SDS011;32703;49.182;9.042;2022-09-03T18:07:08;3.42;;;1.85;;
26102;SDS011;32703;49.182;9.042;2022-09-03T18:12:36;2.92;;;1.50;;
26102;SDS011;32703;49.182;9.042;2022-09-03T18:15:15;2.78;;;1.50;;
26102;SDS011;32703;49.182;9.042;2022-09-03T18:17:53;4.30;;;1.90;;
26102;SDS011;32703;49.182;9.042;2022-09-03T18:20:23;2.55;;;1.35;;
26102;SDS011;32703;49.182;9.042;2022-09-03T18:26:01;3.97;;;2.00;;
26102;SDS011;32703;49.182;9.042;2022-09-03T18:28:55;2.58;;;1.98;;
26102;SDS011;32703;49.182;9.042;2022-09-03T18:31:43;2.17;;;1.50;;
26102;SDS011;32703;49.182;9.042;2022-09-03T18:34:32;2.45;;;1.63;;
26102;SDS011;32703;49.182;9.042;2022-09-03T18:37:18;2.30;;;1.45;;
26102;SDS011;32703;49.182;9.042;2022-09-03T18:40:06;2.88;;;1.85;;
26102;SDS011;32703;49.182;9.042;2022-09-03T18:43:13;3.83;;;1.52;;
26102;SDS011;32703;49.182;9.042;2022-09-03T18:46:13;1.98;;;1.42;;
26102;SDS011;32703;49.182;9.042;2022-09-03T18:55:17;2.97;;;1.60;;
26102;SDS011;32703;49.182;9.042;2022-09-03T18:58:22;1.80;;;1.30;;
26102;SDS011;32703;49.182;9.042;2022-09-03T19:07:41;1.75;;;1.23;;
26102;SDS011;32703;49.182;9.042;2022-09-03T19:10:42;2.20;;;1.50;;
26102;SDS011;32703;49.182;9.042;2022-09-03T19:13:43;5.13;;;1.83;;
26102;SDS011;32703;49.182;9.042;2022-09-03T19:22:37;2.70;;;1.83;;
26102;SDS011;32703;49.182;9.042;2022-09-03T19:25:23;3.38;;;1.95;;
26102;SDS011;32703;49.182;9.042;2022-09-03T19:37:18;4.32;;;2.30;;
26102;SDS011;32703;49.182;9.042;2022-09-03T19:44:09;4.20;;;2.22;;
26102;SDS011;32703;49.182;9.042;2022-09-03T19:47:15;4.10;;;1.80;;
26102;SDS011;32703;49.182;9.042;2022-09-03T19:53:04;3.00;;;1.65;;
26102;SDS011;32703;49.182;9.042;2022-09-03T19:55:52;4.00;;;1.95;;
26102;SDS011;32703;49.182;9.042;2022-09-03T19:58:37;3.53;;;1.85;;
26102;SDS011;32703;49.182;9.042;2022-09-03T20:01:28;3.65;;;2.20;;
26102;SDS011;32703;49.182;9.042;2022-09-03T20:04:16;3.33;;;2.00;;
26102;SDS011;32703;49.182;9.042;2022-09-03T20:07:04;4.43;;;1.60;;
26102;SDS011;32703;49.182;9.042;2022-09-03T20:09:52;2.20;;;1.42;;
26102;SDS011;32703;49.182;9.042;2022-09-03T20:12:40;3.78;;;2.15;;
26102;SDS011;32703;49.182;9.042;2022-09-03T20:15:09;3.10;;;1.88;;
26102;SDS011;32703;49.182;9.042;2022-09-03T20:17:45;2.25;;;1.63;;
26102;SDS011;32703;49.182;9.042;2022-09-03T20:20:46;2.97;;;1.80;;
26102;SDS011;32703;49.182;9.042;2022-09-03T20:29:23;3.70;;;1.80;;
26102;SDS011;32703;49.182;9.042;2022-09-03T20:32:02;2.53;;;1.70;;
26102;SDS011;32703;49.182;9.042;2022-09-03T20:40:22;3.13;;;1.77;;
26102;SDS011;32703;49.182;9.042;2022-09-03T20:43:01;4.35;;;2.60;;